createdAt,value
2023-04-18T00:04:15.019Z,99.90
2023-04-18T00:09:18.413Z,99.90
2023-04-18T00:14:23.284Z,99.90
2023-04-18T00:19:26.386Z,99.90
2023-04-18T00:24:29.476Z,99.90
2023-04-18T00:29:32.426Z,99.90
2023-04-18T00:34:35.692Z,99.90
2023-04-18T00:39:38.636Z,99.90
2023-04-18T00:44:41.559Z,99.90
2023-04-18T00:49:45.783Z,99.90
2023-04-18T00:54:49.077Z,99.90
2023-04-18T00:59:52.453Z,99.90
2023-04-18T01:04:55.492Z,99.90
2023-04-18T01:09:58.825Z,99.90
2023-04-18T01:15:03.908Z,99.90
2023-04-18T01:20:07.968Z,99.90
2023-04-18T01:25:11.556Z,99.90
2023-04-18T01:30:14.534Z,99.90
2023-04-18T01:35:18.231Z,99.90
2023-04-18T01:40:21.338Z,99.90
2023-04-18T01:45:24.416Z,99.90
2023-04-18T01:50:27.948Z,99.90
2023-04-18T01:55:30.914Z,99.90
2023-04-18T02:00:34.094Z,99.90
2023-04-18T02:05:37.589Z,99.90
2023-04-18T02:10:41.817Z,99.90
2023-04-18T02:15:46.137Z,99.90
2023-04-18T02:20:49.086Z,99.90
2023-04-18T02:25:52.116Z,99.90
2023-04-18T02:30:55.990Z,99.90
2023-04-18T02:35:58.972Z,99.90
2023-04-18T02:41:02.115Z,99.90
2023-04-18T02:46:05.238Z,99.90
2023-04-18T02:51:09.458Z,99.90
2023-04-18T02:56:17.070Z,99.90
2023-04-18T03:01:20.513Z,99.90
2023-04-18T03:06:23.478Z,99.90
2023-04-18T03:11:26.583Z,99.90
2023-04-18T03:16:29.785Z,99.90
2023-04-18T03:21:32.748Z,99.90
2023-04-18T03:26:36.444Z,99.90
2023-04-18T03:31:39.540Z,99.90
2023-04-18T03:36:42.673Z,99.90
2023-04-18T03:41:45.372Z,99.90
2023-04-18T03:46:48.400Z,99.90
2023-04-18T03:51:52.188Z,99.90
2023-04-18T03:56:55.924Z,99.90
2023-04-18T04:01:58.776Z,99.90
2023-04-18T04:07:02.046Z,99.90
2023-04-18T04:12:05.611Z,99.90
2023-04-18T04:17:08.560Z,99.90
2023-04-18T04:22:11.599Z,99.90
2023-04-18T04:27:14.507Z,99.90
2023-04-18T04:32:17.478Z,99.90
2023-04-18T04:37:20.454Z,99.90
2023-04-18T04:42:25.313Z,99.90
2023-04-18T04:47:28.804Z,99.90
2023-04-18T04:52:32.761Z,99.90
2023-04-18T04:57:35.954Z,99.90
2023-04-18T05:02:39.199Z,99.90
2023-04-18T05:07:42.273Z,99.90
2023-04-18T05:12:45.311Z,99.90
2023-04-18T05:17:48.403Z,99.90
2023-04-18T05:22:51.506Z,99.90
2023-04-18T05:27:54.482Z,99.90
2023-04-18T05:32:57.427Z,99.90
2023-04-18T05:38:00.548Z,99.90
2023-04-18T05:43:03.428Z,99.90
2023-04-18T05:48:06.409Z,99.90
2023-04-18T05:53:09.893Z,99.90
2023-04-18T05:58:12.817Z,99.90
2023-04-18T06:03:16.730Z,99.90
2023-04-18T06:08:19.945Z,99.90
2023-04-18T06:13:22.860Z,99.90
2023-04-18T06:18:25.818Z,99.90
2023-04-18T06:23:28.786Z,99.90
2023-04-18T06:28:31.718Z,99.90
2023-04-18T06:33:35.572Z,99.90
2023-04-18T06:38:38.680Z,99.90
2023-04-18T06:43:52.160Z,99.90
2023-04-18T06:49:04.916Z,99.90
2023-04-18T06:54:07.868Z,99.90
2023-04-18T06:59:10.930Z,99.90
2023-04-18T07:04:14.629Z,99.90
2023-04-18T07:09:17.923Z,99.90
2023-04-18T07:14:24.927Z,99.90
2023-04-18T07:19:28.421Z,99.90
2023-04-18T07:24:31.572Z,99.90
2023-04-18T07:29:34.514Z,99.90
2023-04-18T07:34:37.773Z,99.90
2023-04-18T07:39:41.354Z,99.90
2023-04-18T07:44:44.664Z,99.90
2023-04-18T07:49:47.624Z,99.90
2023-04-18T07:54:51.310Z,99.90
2023-04-18T07:59:54.477Z,99.90
2023-04-18T08:04:58.522Z,99.90
2023-04-18T08:10:01.772Z,99.90
2023-04-18T08:15:05.812Z,99.90
2023-04-18T08:20:09.132Z,99.90
2023-04-18T08:25:12.418Z,99.90
2023-04-18T08:30:15.926Z,99.70
2023-04-18T08:35:18.914Z,97.60
2023-04-18T08:40:22.108Z,97.00
2023-04-18T08:45:25.024Z,97.30
2023-04-18T08:50:28.040Z,97.50
2023-04-18T08:55:31.094Z,97.40
2023-04-18T09:00:34.287Z,97.40
2023-04-18T09:05:38.543Z,96.10
2023-04-18T09:10:43.053Z,96.10
2023-04-18T09:15:56.176Z,95.40
2023-04-18T09:21:20.117Z,95.60
2023-04-18T09:26:36.345Z,95.20
2023-04-18T09:32:01.599Z,94.50
2023-04-18T09:37:13.588Z,93.20
2023-04-18T09:42:18.268Z,94.30
2023-04-18T09:47:21.218Z,93.20
2023-04-18T09:52:28.254Z,91.80
2023-04-18T09:57:34.677Z,90.70
2023-04-18T10:02:50.538Z,90.20
2023-04-18T10:07:55.120Z,89.40
2023-04-18T10:13:00.271Z,87.50
2023-04-18T10:18:24.756Z,87.50
2023-04-18T10:23:37.195Z,85.30
2023-04-18T10:28:53.469Z,84.60
2023-04-18T10:34:05.316Z,82.70
2023-04-18T10:39:23.765Z,81.40
2023-04-18T10:44:27.659Z,81.40
2023-04-18T10:49:33.769Z,80.30
2023-04-18T10:54:38.152Z,80.10
2023-04-18T10:59:50.337Z,77.70
2023-04-18T11:04:58.817Z,77.00
2023-04-18T11:10:02.423Z,77.20
2023-04-18T11:15:25.783Z,76.90
2023-04-18T11:20:37.289Z,76.30
2023-04-18T11:25:40.646Z,75.80
2023-04-18T11:30:43.526Z,74.40
2023-04-18T11:35:49.290Z,74.00
2023-04-18T11:40:52.481Z,73.50
2023-04-18T11:45:58.268Z,73.20
2023-04-18T11:51:01.450Z,73.50
2023-04-18T11:56:05.994Z,73.80
2023-04-18T12:01:24.921Z,72.60
2023-04-18T12:06:29.728Z,70.70
2023-04-18T12:11:32.952Z,71.20
2023-04-18T12:16:36.033Z,65.20
2023-04-18T12:22:00.670Z,58.80
2023-04-18T12:27:04.013Z,58.00
2023-04-18T12:32:06.871Z,58.00
2023-04-18T12:37:10.060Z,56.50
2023-04-18T12:42:13.097Z,57.20
2023-04-18T12:47:15.967Z,56.50
2023-04-18T12:52:18.877Z,57.20
2023-04-18T12:57:22.205Z,56.90
2023-04-18T13:02:26.614Z,53.90
2023-04-18T13:07:29.770Z,52.00
2023-04-18T13:12:32.947Z,52.70
2023-04-18T13:17:36.971Z,52.80
2023-04-18T13:22:41.605Z,50.10
2023-04-18T13:27:45.952Z,49.10
2023-04-18T13:32:48.930Z,47.50
2023-04-18T13:37:51.937Z,46.00
2023-04-18T13:42:54.952Z,43.20
2023-04-18T13:47:57.797Z,44.60
2023-04-18T13:53:00.725Z,42.30
2023-04-18T13:58:03.640Z,42.60
2023-04-18T14:03:07.177Z,40.40
2023-04-18T14:08:10.404Z,40.70
2023-04-18T14:13:13.354Z,39.10
2023-04-18T14:18:21.496Z,38.80
2023-04-18T14:23:25.956Z,39.90
2023-04-18T14:28:29.068Z,38.70
2023-04-18T14:33:35.854Z,38.90
2023-04-18T14:38:38.777Z,38.70
2023-04-18T14:43:41.729Z,39.70
2023-04-18T14:48:46.880Z,39.70
2023-04-18T14:53:50.009Z,40.20
2023-04-18T14:58:52.872Z,39.50
2023-04-18T15:03:55.985Z,40.30
2023-04-18T15:08:58.925Z,40.10
2023-04-18T15:14:01.894Z,40.60
2023-04-18T15:19:04.806Z,40.60
2023-04-18T15:24:08.251Z,40.00
2023-04-18T15:29:11.651Z,40.40
2023-04-18T15:34:16.212Z,40.00
2023-04-18T15:39:23.255Z,40.70
2023-04-18T15:44:26.694Z,39.60
2023-04-18T15:49:29.631Z,39.00
2023-04-18T15:54:33.016Z,40.30
2023-04-18T15:59:36.361Z,40.90
2023-04-18T16:04:39.836Z,41.30
2023-04-18T16:09:42.603Z,42.50
2023-04-18T16:14:45.647Z,43.50
2023-04-18T16:19:48.800Z,44.20
2023-04-18T16:24:51.832Z,45.10
2023-04-18T16:29:55.254Z,45.80
2023-04-18T16:34:58.230Z,46.50
2023-04-18T16:40:01.308Z,47.30
2023-04-18T16:45:04.801Z,47.70
2023-04-18T16:50:09.449Z,48.60
2023-04-18T16:55:12.474Z,48.80
2023-04-18T17:00:16.630Z,49.30
2023-04-18T17:05:19.702Z,50.20
2023-04-18T17:10:22.797Z,50.70
2023-04-18T17:15:27.303Z,51.20
2023-04-18T17:20:30.221Z,51.70
2023-04-18T17:25:33.233Z,52.20
2023-04-18T17:30:42.717Z,52.50
2023-04-18T17:35:46.036Z,53.20
2023-04-18T17:40:49.003Z,53.50
2023-04-18T17:45:52.126Z,54.10
2023-04-18T17:50:55.167Z,54.80
2023-04-18T17:56:01.263Z,54.80
2023-04-18T18:01:04.274Z,55.40
2023-04-18T18:06:07.758Z,56.00
2023-04-18T18:11:10.914Z,56.90
2023-04-18T18:16:14.114Z,57.40
2023-04-18T18:21:18.249Z,58.00
2023-04-18T18:26:21.349Z,58.30
2023-04-18T18:31:25.028Z,58.70
2023-04-18T18:36:28.568Z,59.30
2023-04-18T18:41:31.589Z,59.50
2023-04-18T18:46:35.491Z,59.60
2023-04-18T18:51:38.610Z,60.00
2023-04-18T18:56:42.737Z,60.30
2023-04-18T19:01:45.829Z,60.60
2023-04-18T19:06:49.063Z,60.90
2023-04-18T19:11:52.133Z,60.90
2023-04-18T19:16:56.002Z,61.20
2023-04-18T19:22:01.177Z,61.10
2023-04-18T19:27:04.455Z,61.10
2023-04-18T19:32:07.547Z,61.20
2023-04-18T19:37:10.705Z,61.20
2023-04-18T19:42:13.843Z,60.90
2023-04-18T19:47:17.002Z,60.60
2023-04-18T19:52:20.014Z,60.50
2023-04-18T19:57:23.040Z,60.70
2023-04-18T20:02:26.271Z,60.70
2023-04-18T20:07:30.752Z,61.00
2023-04-18T20:12:34.328Z,60.70
2023-04-18T20:17:37.379Z,60.70
2023-04-18T20:22:41.865Z,60.50
2023-04-18T20:27:44.886Z,60.70
2023-04-18T20:32:47.889Z,61.10
2023-04-18T20:37:50.903Z,61.50
2023-04-18T20:42:57.897Z,62.20
2023-04-18T20:48:04.025Z,62.40
2023-04-18T20:53:07.066Z,62.80
2023-04-18T20:58:10.090Z,62.60
2023-04-18T21:03:14.064Z,62.40
2023-04-18T21:08:17.114Z,62.30
2023-04-18T21:13:20.151Z,62.20
2023-04-18T21:18:23.691Z,62.10
2023-04-18T21:23:26.622Z,62.00
2023-04-18T21:28:29.620Z,62.10
2023-04-18T21:33:32.372Z,62.50
2023-04-18T21:38:35.709Z,62.60
2023-04-18T21:43:38.650Z,62.70
2023-04-18T21:48:44.190Z,63.10
2023-04-18T21:53:47.342Z,63.30
2023-04-18T21:58:50.673Z,63.40
2023-04-18T22:03:53.893Z,63.40
2023-04-18T22:08:58.326Z,63.50
2023-04-18T22:14:01.774Z,63.90
2023-04-18T22:19:05.837Z,64.20
2023-04-18T22:24:09.367Z,64.40
2023-04-18T22:29:12.249Z,64.70
2023-04-18T22:34:15.499Z,64.80
2023-04-18T22:39:18.818Z,64.90
2023-04-18T22:44:21.823Z,64.70
2023-04-18T22:49:24.682Z,64.50
2023-04-18T22:54:27.706Z,64.60
2023-04-18T22:59:30.914Z,64.40
2023-04-18T23:04:34.240Z,64.30
2023-04-18T23:09:37.183Z,64.40
2023-04-18T23:14:41.805Z,64.20
2023-04-18T23:19:45.353Z,64.10
2023-04-18T23:24:48.200Z,64.10
2023-04-18T23:29:51.078Z,64.20
2023-04-18T23:34:54.175Z,64.20
2023-04-18T23:39:58.083Z,64.00
2023-04-18T23:45:06.072Z,63.80
2023-04-18T23:50:09.712Z,63.60
2023-04-18T23:55:12.762Z,63.50
